Time;durP1;ratioP1;P1;durP2;ratioP2;P2;SDS_P1;SDS_P2;PMS_P1;PMS_P2;Temp;Humidity;BMP_temperature;BMP_pressure;BME280_temperature;BME280_humidity;BME280_pressure;Samples;Min_cycle;Max_cycle;Signal;HPM_P1;HPM_P2
2021/08/15 00:01:35;;;;;;;28.05;20.02;;;;;;;19.38;89.05;99113.20;3944250;87;21587;-85
2021/08/15 00:07:38;;;;;;;26.48;18.75;;;;;;;19.33;89.29;99119.84;3974045;87;21687;-85
2021/08/15 00:13:39;;;;;;;26.77;19.90;;;;;;;19.38;89.42;99120.73;3960474;87;21178;-84
2021/08/15 00:19:40;;;;;;;25.95;19.55;;;;;;;19.35;89.36;99116.05;3967072;87;21796;-85
2021/08/15 00:25:42;;;;;;;27.15;19.45;;;;;;;19.29;89.52;99112.22;3970852;86;21187;-85
2021/08/15 00:31:43;;;;;;;21.35;18.87;;;;;;;19.29;89.53;99108.84;3896790;87;21074;-85
2021/08/15 00:37:44;;;;;;;22.77;19.67;;;;;;;19.20;89.59;99106.45;3837878;90;22387;-84
2021/08/15 00:43:45;;;;;;;27.07;18.80;;;;;;;19.13;89.82;99108.77;3914075;88;21051;-85
2021/08/15 00:49:48;;;;;;;22.80;17.90;;;;;;;19.10;89.90;99106.85;3884468;89;21142;-84
2021/08/15 00:55:49;;;;;;;25.77;17.20;;;;;;;19.06;90.54;99104.74;3873681;89;21072;-84
2021/08/15 01:01:56;;;;;;;28.73;19.02;;;;;;;19.17;90.68;99105.30;3913546;87;21199;-85
2021/08/15 01:07:59;;;;;;;30.20;23.05;;;;;;;19.31;90.79;99115.36;3894970;89;21087;-84
2021/08/15 01:14:05;;;;;;;25.97;15.95;;;;;;;19.27;90.24;99113.22;3943173;87;21138;-84
2021/08/15 01:20:09;;;;;;;25.85;17.98;;;;;;;19.28;90.59;99111.42;3969525;87;21067;-84
2021/08/15 01:26:17;;;;;;;27.22;19.37;;;;;;;19.19;90.47;99111.20;3961322;87;21147;-84
2021/08/15 01:32:21;;;;;;;26.37;19.27;;;;;;;19.27;90.67;99114.01;3953226;87;21718;-84
2021/08/15 01:38:27;;;;;;;28.62;21.42;;;;;;;19.14;90.14;99110.95;3870856;89;21136;-84
2021/08/15 01:44:28;;;;;;;25.50;18.30;;;;;;;18.94;90.26;99112.34;3935229;88;21088;-84
2021/08/15 01:50:30;;;;;;;20.92;18.02;;;;;;;18.77;90.38;99112.09;3870208;89;21802;-84
2021/08/15 01:56:31;;;;;;;23.60;18.95;;;;;;;18.65;90.46;99112.73;3896009;89;21625;-85
2021/08/15 02:02:33;;;;;;;21.90;18.77;;;;;;;18.53;90.80;99112.75;3876858;89;21132;-84
2021/08/15 02:08:35;;;;;;;25.30;18.32;;;;;;;18.45;90.97;99102.20;3925569;87;21101;-84
2021/08/15 02:14:36;;;;;;;23.07;18.25;;;;;;;18.42;91.29;99101.67;3872387;89;21071;-86
2021/08/15 02:20:37;;;;;;;25.37;19.32;;;;;;;18.38;91.39;99097.61;3853027;90;21590;-84
2021/08/15 02:26:39;;;;;;;22.10;18.32;;;;;;;18.32;91.39;99095.09;3909020;87;21135;-85
2021/08/15 02:32:41;;;;;;;23.40;18.23;;;;;;;18.24;91.55;99085.95;3819631;90;21180;-84
2021/08/15 02:38:42;;;;;;;22.62;16.60;;;;;;;18.19;91.72;99085.84;3907127;88;21124;-84
2021/08/15 02:44:43;;;;;;;22.58;18.32;;;;;;;18.07;91.67;99086.44;3856801;87;21050;-84
2021/08/15 02:50:45;;;;;;;22.87;18.02;;;;;;;18.06;91.93;99079.94;3909735;89;21547;-86
2021/08/15 02:56:46;;;;;;;24.35;17.82;;;;;;;18.04;92.13;99079.59;3899703;89;21110;-84
2021/08/15 03:02:47;;;;;;;22.30;17.35;;;;;;;18.03;92.49;99080.19;3970525;87;21059;-84
2021/08/15 03:08:50;;;;;;;23.15;16.00;;;;;;;18.06;92.60;99078.55;3962854;87;21468;-85
2021/08/15 03:14:51;;;;;;;22.70;16.07;;;;;;;18.10;92.69;99073.75;3976301;86;21063;-85
2021/08/15 03:20:53;;;;;;;25.72;17.32;;;;;;;17.97;92.06;99070.80;3970649;87;21085;-84
2021/08/15 03:26:54;;;;;;;21.33;17.52;;;;;;;17.88;92.25;99063.65;3935941;87;21049;-84
2021/08/15 03:32:56;;;;;;;19.62;17.37;;;;;;;17.75;92.35;99055.75;3938778;88;21034;-84
2021/08/15 03:38:57;;;;;;;21.27;16.40;;;;;;;17.67;92.59;99058.45;3964546;88;21142;-84
2021/08/15 03:44:59;;;;;;;23.67;17.20;;;;;;;17.70;93.01;99060.97;3956916;88;21543;-84
2021/08/15 03:51:00;;;;;;;20.80;16.35;;;;;;;17.66;92.79;99061.64;3996927;87;21128;-84
2021/08/15 03:57:02;;;;;;;21.40;16.20;;;;;;;17.64;92.89;99061.27;3955413;88;21110;-85
2021/08/15 04:03:03;;;;;;;23.52;17.80;;;;;;;17.55;92.72;99058.26;3956347;88;21664;-84
2021/08/15 04:09:06;;;;;;;21.90;15.28;;;;;;;17.48;92.94;99056.37;3893658;88;21112;-83
2021/08/15 04:15:08;;;;;;;21.65;18.15;;;;;;;17.43;92.99;99055.44;3905485;88;21691;-84
2021/08/15 04:21:09;;;;;;;22.93;17.37;;;;;;;17.41;93.26;99060.62;3836333;90;21167;-84
2021/08/15 04:27:10;;;;;;;24.10;18.62;;;;;;;17.47;93.52;99047.11;3959101;87;21099;-84
2021/08/15 04:33:18;;;;;;;20.90;16.37;;;;;;;17.48;93.90;99044.55;3961735;86;21056;-84
2021/08/15 04:39:18;;;;;;;19.02;15.55;;;;;;;17.50;94.26;99049.84;3965533;87;21054;-84
2021/08/15 04:45:19;;;;;;;18.92;14.83;;;;;;;17.60;94.54;99043.95;3894938;88;21655;-84
2021/08/15 04:51:20;;;;;;;22.67;15.23;;;;;;;17.68;94.96;99036.47;3959194;87;21718;-84
2021/08/15 04:57:25;;;;;;;21.70;14.85;;;;;;;17.92;95.03;99038.64;3964019;88;21419;-84
2021/08/15 05:03:26;;;;;;;16.55;14.07;;;;;;;18.16;95.19;99038.80;3951614;87;21023;-84
2021/08/15 05:09:27;;;;;;;19.23;14.38;;;;;;;18.38;94.94;99031.69;3959300;88;21055;-84
2021/08/15 05:15:29;;;;;;;22.75;19.07;;;;;;;18.58;94.95;99032.47;3962191;86;21148;-84
2021/08/15 05:21:30;;;;;;;22.82;18.23;;;;;;;18.73;95.05;99021.87;3964467;88;21039;-84
2021/08/15 05:27:32;;;;;;;22.70;15.78;;;;;;;18.82;95.30;99029.00;3946413;88;21712;-85
2021/08/15 05:33:34;;;;;;;23.00;15.43;;;;;;;18.96;94.97;99029.48;3961194;87;21197;-84
2021/08/15 05:39:35;;;;;;;20.08;17.23;;;;;;;19.15;94.71;99026.48;3961680;86;22165;-85
2021/08/15 05:45:37;;;;;;;17.75;14.73;;;;;;;19.30;95.03;99024.95;3912230;89;21105;-85
2021/08/15 05:51:38;;;;;;;22.13;15.03;;;;;;;19.44;94.91;99026.01;3864485;88;21108;-85
2021/08/15 05:57:40;;;;;;;17.92;13.88;;;;;;;19.62;95.18;99022.21;3960491;88;21658;-85
2021/08/15 06:03:41;;;;;;;18.40;14.10;;;;;;;19.81;95.26;99026.89;3971855;88;21732;-85
2021/08/15 06:09:46;;;;;;;15.03;13.43;;;;;;;20.06;95.40;99018.06;3953261;88;21070;-85
2021/08/15 06:15:48;;;;;;;13.53;12.00;;;;;;;20.40;95.29;99025.13;3988275;86;21202;-85
2021/08/15 06:21:50;;;;;;;17.23;12.50;;;;;;;20.69;94.88;99014.78;4008451;86;21592;-87
2021/08/15 06:27:58;;;;;;;15.85;10.98;;;;;;;21.01;94.76;99013.23;3963624;87;21070;-85
2021/08/15 06:34:02;;;;;;;13.72;11.48;;;;;;;21.28;94.22;99009.41;3970230;88;21804;-86
2021/08/15 06:40:05;;;;;;;18.37;12.13;;;;;;;21.53;93.98;99007.36;3963986;88;22016;-86
2021/08/15 06:46:13;;;;;;;12.53;10.88;;;;;;;21.79;93.56;99008.13;3960325;88;21770;-86
2021/08/15 06:52:22;;;;;;;13.30;10.43;;;;;;;22.02;93.62;99002.15;3895732;88;21723;-86
2021/08/15 06:58:23;;;;;;;17.05;11.25;;;;;;;22.28;93.18;99002.23;3935918;88;21083;-85
2021/08/15 07:04:24;;;;;;;12.33;10.38;;;;;;;22.49;93.01;98997.89;3915952;89;21162;-86
2021/08/15 07:10:27;;;;;;;11.83;10.00;;;;;;;22.75;92.98;98995.93;3840821;90;21082;-87
2021/08/15 07:16:50;;;;;;;15.83;10.95;;;;;;;23.00;92.92;98983.80;3923692;87;21112;-87
2021/08/15 07:22:52;;;;;;;14.43;9.68;;;;;;;23.24;92.88;98992.58;3975253;87;21079;-87
2021/08/15 07:28:53;;;;;;;13.18;10.08;;;;;;;23.55;92.75;98989.78;3964899;86;21061;-86
2021/08/15 07:34:56;;;;;;;13.22;10.58;;;;;;;23.88;92.21;98988.59;3908816;87;21126;-87
2021/08/15 07:41:10;;;;;;;15.43;9.63;;;;;;;24.18;91.55;98988.47;3885398;89;21590;-87
2021/08/15 07:47:12;;;;;;;13.53;9.85;;;;;;;24.52;91.05;98988.77;3956088;87;21051;-88
2021/08/15 07:53:21;;;;;;;12.88;10.10;;;;;;;24.88;90.09;98976.12;3968340;87;21087;-87
2021/08/15 07:59:22;;;;;;;11.35;8.80;;;;;;;25.41;89.87;98975.77;3962654;87;21067;-86
2021/08/15 08:05:24;;;;;;;11.70;8.28;;;;;;;26.05;88.44;98968.53;3966691;88;21789;-88
2021/08/15 08:11:27;;;;;;;9.58;8.25;;;;;;;26.60;86.61;98968.80;3959365;88;21101;-86
2021/08/15 08:17:28;;;;;;;9.40;8.40;;;;;;;26.79;81.93;98950.55;3968699;88;22294;-87
2021/08/15 08:23:34;;;;;;;8.95;7.20;;;;;;;27.24;82.23;98967.47;3924899;88;21103;-88
2021/08/15 08:29:38;;;;;;;9.38;7.53;;;;;;;27.43;81.89;98963.97;3912291;89;21066;-88
2021/08/15 08:35:39;;;;;;;14.07;7.30;;;;;;;27.62;81.52;98967.30;3981045;87;21130;-87
2021/08/15 08:41:41;;;;;;;13.85;7.30;;;;;;;27.79;79.97;98961.26;3937197;87;21627;-87
2021/08/15 08:47:51;;;;;;;8.63;6.60;;;;;;;27.97;78.84;98961.64;3922513;88;21223;-88
2021/08/15 08:53:53;;;;;;;9.38;6.67;;;;;;;28.13;77.47;98949.82;3924570;88;21027;-87
2021/08/15 08:59:58;;;;;;;15.88;7.22;;;;;;;28.23;75.87;98939.31;3941105;88;21064;-86
2021/08/15 09:06:02;;;;;;;9.63;7.35;;;;;;;28.39;72.07;98932.31;3973912;86;21206;-86
2021/08/15 09:12:07;;;;;;;13.58;6.95;;;;;;;28.58;72.58;98930.73;3948510;87;21102;-88
2021/08/15 09:18:16;;;;;;;10.58;7.08;;;;;;;28.71;71.35;98922.02;3950690;87;21050;-88
2021/08/15 09:24:19;;;;;;;9.73;6.78;;;;;;;29.02;71.26;98906.51;3956539;87;21078;-88
2021/08/15 09:30:27;;;;;;;7.92;5.90;;;;;;;29.54;70.39;98909.18;3965883;88;21126;-88
2021/08/15 09:36:36;;;;;;;11.53;5.80;;;;;;;29.96;68.99;98904.23;3963093;88;21063;-88
2021/08/15 09:42:46;;;;;;;8.10;5.87;;;;;;;30.68;67.64;98896.58;3974612;86;21011;-88
2021/08/15 09:48:49;;;;;;;9.43;5.17;;;;;;;31.33;67.00;98885.89;3906486;88;21632;-88
2021/08/15 09:54:57;;;;;;;8.88;5.55;;;;;;;31.62;65.45;98888.09;3855303;90;21102;-87
2021/08/15 10:01:03;;;;;;;7.55;5.62;;;;;;;31.39;64.75;98885.23;3971988;86;21010;-88
2021/08/15 10:07:05;;;;;;;9.60;6.30;;;;;;;30.47;64.60;98888.35;3951854;88;21059;-88
2021/08/15 10:13:07;;;;;;;10.60;6.60;;;;;;;29.75;64.52;98871.08;3964458;88;21091;-88
2021/08/15 10:19:17;;;;;;;9.28;6.83;;;;;;;29.10;65.32;98873.02;3956188;88;21059;-88
2021/08/15 10:25:33;;;;;;;7.45;6.20;;;;;;;28.68;65.91;98887.81;3966898;88;21132;-87
2021/08/15 10:32:07;;;;;;;8.88;5.90;;;;;;;28.65;66.52;98869.09;3958703;88;21066;-87
2021/08/15 10:38:17;;;;;;;23.73;9.05;;;;;;;28.66;66.84;98876.27;3956211;88;21645;-85
2021/08/15 10:44:19;;;;;;;11.85;6.90;;;;;;;28.40;68.21;98905.07;3965869;87;21097;-85
2021/08/15 10:50:27;;;;;;;16.37;7.40;;;;;;;28.16;69.66;98875.66;3973657;87;21574;-85
2021/08/15 10:57:00;;;;;;;9.13;7.08;;;;;;;28.45;71.48;98867.75;3955481;88;21765;-84
2021/08/15 11:03:21;;;;;;;12.20;8.28;;;;;;;28.91;72.15;98859.19;3907032;89;21051;-85
2021/08/15 11:09:22;;;;;;;8.50;7.50;;;;;;;29.37;72.70;98846.27;3949403;87;21102;-83
2021/08/15 11:15:25;;;;;;;14.50;7.22;;;;;;;29.64;72.75;98831.55;3954020;87;21045;-84
2021/08/15 11:22:16;;;;;;;11.43;6.42;;;;;;;29.99;73.33;98829.84;3945579;87;21123;-84
2021/08/15 11:28:18;;;;;;;11.20;5.78;;;;;;;30.30;73.05;98828.90;3935403;87;21070;-84
2021/08/15 11:34:22;;;;;;;9.43;5.50;;;;;;;30.90;72.07;98824.53;3916625;89;21106;-84
2021/08/15 11:40:30;;;;;;;10.85;5.70;;;;;;;31.28;71.15;98836.38;3935100;87;21603;-87
2021/08/15 11:46:31;;;;;;;9.70;6.00;;;;;;;31.53;69.71;98825.38;3937999;87;21691;-85
2021/08/15 11:52:39;;;;;;;12.10;5.87;;;;;;;31.62;68.50;98828.68;3921806;88;21128;-86
2021/08/15 11:58:54;;;;;;;8.85;5.53;;;;;;;31.61;67.72;98815.83;3916990;88;21062;-85
2021/08/15 12:04:55;;;;;;;8.23;5.40;;;;;;;31.42;66.33;98821.95;3962410;87;21119;-86
2021/08/15 12:10:56;;;;;;;7.90;5.95;;;;;;;31.23;65.81;98818.80;3917903;87;21070;-86
2021/08/15 12:16:59;;;;;;;8.73;6.35;;;;;;;30.94;65.51;98810.89;3911153;88;21194;-85
2021/08/15 12:23:06;;;;;;;10.65;6.75;;;;;;;30.53;64.67;98802.97;3919287;87;21110;-86
2021/08/15 12:29:19;;;;;;;10.65;6.97;;;;;;;30.27;64.46;98808.09;3936254;87;21051;-86
2021/08/15 12:35:27;;;;;;;9.70;7.45;;;;;;;30.14;63.72;98797.16;3958416;87;21658;-86
2021/08/15 12:41:53;;;;;;;11.68;6.92;;;;;;;29.96;63.48;98792.02;3969251;88;21067;-86
2021/08/15 12:48:04;;;;;;;9.28;6.95;;;;;;;29.80;62.50;98784.28;3957772;88;21074;-87
2021/08/15 12:54:17;;;;;;;11.30;6.15;;;;;;;29.76;62.54;98781.70;3963912;87;21127;-87
2021/08/15 13:00:44;;;;;;;10.23;6.70;;;;;;;29.67;61.83;98775.52;3960773;88;21087;-87
2021/08/15 13:06:45;;;;;;;12.05;6.78;;;;;;;29.56;61.13;98772.02;3962215;86;21130;-87
2021/08/15 13:13:00;;;;;;;10.00;6.42;;;;;;;29.41;60.46;98762.22;3969564;87;21059;-87
2021/08/15 13:19:01;;;;;;;7.50;5.83;;;;;;;29.27;60.73;98758.31;3986393;86;21054;-87
2021/08/15 13:25:03;;;;;;;8.50;6.70;;;;;;;29.24;60.19;98762.80;3958886;88;22229;-87
2021/08/15 13:31:04;;;;;;;7.55;5.72;;;;;;;29.26;59.49;98761.64;3965570;88;22296;-87
2021/08/15 13:37:14;;;;;;;9.73;6.08;;;;;;;29.20;59.81;98755.21;3973238;88;21031;-87
2021/08/15 13:43:40;;;;;;;7.75;5.80;;;;;;;29.15;59.17;98756.73;3967488;88;21075;-87
2021/08/15 13:49:48;;;;;;;8.33;5.40;;;;;;;29.08;58.24;98756.57;3977467;87;21086;-87
2021/08/15 13:55:50;;;;;;;9.80;5.62;;;;;;;28.97;57.96;98736.77;3964375;88;21526;-88
2021/08/15 14:01:53;;;;;;;8.43;5.78;;;;;;;28.83;58.04;98743.35;3968740;88;21103;-88
2021/08/15 14:07:56;;;;;;;23.18;5.90;;;;;;;28.86;57.95;98741.59;3973492;88;21112;-87
2021/08/15 14:13:58;;;;;;;9.83;4.87;;;;;;;28.91;57.40;98730.99;3971766;88;21149;-87
2021/08/15 14:20:05;;;;;;;6.20;5.60;;;;;;;28.86;57.05;98728.25;3798974;85;9999869;-87
2021/08/15 14:26:07;;;;;;;8.70;6.03;;;;;;;28.85;56.21;98722.50;3985544;87;21146;-87
2021/08/15 14:32:08;;;;;;;7.72;5.67;;;;;;;28.62;56.26;98718.66;3948860;88;21107;-88
2021/08/15 14:38:09;;;;;;;6.42;5.22;;;;;;;28.49;56.21;98728.16;3965473;86;21121;-87
2021/08/15 14:44:13;;;;;;;7.45;5.40;;;;;;;28.45;56.26;98712.91;3975438;87;21085;-87
2021/08/15 14:50:17;;;;;;;7.08;5.55;;;;;;;28.47;56.26;98702.55;3975106;87;21066;-88
2021/08/15 14:56:18;;;;;;;9.65;6.25;;;;;;;28.44;56.29;98699.33;3958871;87;21087;-86
2021/08/15 15:02:29;;;;;;;8.50;6.40;;;;;;;28.39;56.44;98698.03;3953224;86;22032;-87
2021/08/15 15:08:36;;;;;;;6.62;5.87;;;;;;;28.33;56.41;98702.08;3948134;87;21974;-87
2021/08/15 15:14:37;;;;;;;7.87;6.17;;;;;;;28.18;56.35;98700.03;3966062;87;21063;-87
2021/08/15 15:20:39;;;;;;;7.15;5.72;;;;;;;28.07;56.86;98681.66;3965688;87;21035;-88
2021/08/15 15:27:03;;;;;;;7.10;5.95;;;;;;;27.97;57.39;98678.91;3955448;88;21131;-87
2021/08/15 15:33:05;;;;;;;7.42;5.10;;;;;;;27.95;57.10;98679.41;3972125;88;21577;-88
2021/08/15 15:39:09;;;;;;;8.50;5.37;;;;;;;27.95;57.04;98668.16;3971161;88;21610;-88
2021/08/15 15:45:11;;;;;;;7.97;5.55;;;;;;;27.85;56.93;98664.56;3956586;88;21337;-88
2021/08/15 15:51:15;;;;;;;6.45;5.83;;;;;;;27.80;57.13;98670.94;3944455;87;22539;-87
2021/08/15 15:57:16;;;;;;;7.10;5.87;;;;;;;27.75;57.25;98672.44;3990308;87;21111;-88
2021/08/15 16:03:18;;;;;;;7.80;5.10;;;;;;;27.69;57.19;98670.84;3947350;87;21103;-87
2021/08/15 16:09:19;;;;;;;7.03;5.10;;;;;;;27.61;57.08;98681.12;3961925;87;21666;-88
2021/08/15 16:15:22;;;;;;;9.50;5.28;;;;;;;27.49;57.26;98685.73;3845348;86;10000351;-87
2021/08/15 16:21:32;;;;;;;5.92;5.33;;;;;;;27.41;57.26;98691.64;3956689;87;21186;-88
2021/08/15 16:27:34;;;;;;;7.17;5.17;;;;;;;27.39;57.49;98692.80;3963673;87;21090;-87
2021/08/15 16:46:53;;;;;;;7.17;5.37;;;;;;;27.17;58.19;98695.33;3968945;86;21067;-87
2021/08/15 16:53:01;;;;;;;6.78;5.20;;;;;;;27.04;57.87;98701.94;3972718;87;21052;-87
2021/08/15 16:59:02;;;;;;;9.30;5.22;;;;;;;26.89;57.95;98699.20;3957319;88;21070;-87
2021/08/15 17:05:04;;;;;;;9.38;5.83;;;;;;;26.69;58.75;98691.39;3962136;87;21710;-87
2021/08/15 17:11:06;;;;;;;9.90;6.85;;;;;;;26.48;59.70;98687.79;3914003;89;21087;-88
2021/08/15 17:17:17;;;;;;;11.50;6.20;;;;;;;26.27;60.67;98686.20;3966935;87;20999;-87
2021/08/15 17:23:22;;;;;;;9.03;6.12;;;;;;;25.97;62.39;98671.43;3993924;86;21176;-87
2021/08/15 17:29:24;;;;;;;9.68;6.53;;;;;;;25.97;62.39;98671.43;3933141;87;21904;-88
2021/08/15 17:35:27;;;;;;;12.20;6.78;;;;;;;25.77;63.10;98681.17;3954762;87;21098;-87
2021/08/15 17:41:28;;;;;;;9.43;7.15;;;;;;;25.60;63.75;98684.95;3922983;88;21164;-87
2021/08/15 17:47:44;;;;;;;8.83;6.25;;;;;;;25.36;64.41;98668.22;3920888;88;21978;-87
2021/08/15 17:53:56;;;;;;;10.45;6.85;;;;;;;25.22;65.16;98684.97;3880124;89;21081;-87
2021/08/15 18:00:01;;;;;;;12.00;6.87;;;;;;;25.14;66.02;98693.59;3895854;89;21152;-85
2021/08/15 18:06:17;;;;;;;9.45;7.50;;;;;;;24.96;66.57;98703.55;3972167;86;21059;-88
2021/08/15 18:12:26;;;;;;;10.70;8.65;;;;;;;24.59;67.48;98714.18;3948230;87;21122;-88
2021/08/15 18:18:28;;;;;;;11.77;7.57;;;;;;;24.44;68.56;98720.34;3875451;86;9999677;-87
2021/08/15 18:24:31;;;;;;;12.95;10.53;;;;;;;24.41;69.21;98727.67;3987483;87;21200;-87
2021/08/15 18:30:32;;;;;;;22.20;16.40;;;;;;;24.26;69.76;98732.38;3961936;87;21141;-87
2021/08/15 18:36:37;;;;;;;16.95;10.05;;;;;;;24.14;70.39;98738.97;3886415;89;22223;-86
2021/08/15 18:42:43;;;;;;;14.33;12.60;;;;;;;23.93;70.96;98736.37;3970060;87;21095;-87
2021/08/15 18:48:45;;;;;;;14.10;11.60;;;;;;;23.73;71.45;98736.88;3971690;86;21087;-87
2021/08/15 18:54:48;;;;;;;17.07;12.23;;;;;;;23.56;72.39;98735.67;3968562;86;21059;-86
2021/08/15 19:00:49;;;;;;;13.98;11.80;;;;;;;23.39;73.07;98730.88;3960352;88;21114;-87
2021/08/15 19:06:57;;;;;;;18.45;11.80;;;;;;;23.21;73.48;98737.20;3955516;88;21050;-87
2021/08/15 19:13:05;;;;;;;14.47;12.07;;;;;;;23.06;74.02;98727.91;3967506;88;21075;-87
2021/08/15 19:19:07;;;;;;;16.77;12.13;;;;;;;22.88;74.41;98720.93;3978079;87;21102;-87
2021/08/15 19:25:09;;;;;;;14.13;11.43;;;;;;;22.68;74.87;98722.75;3961582;88;21071;-87
2021/08/15 19:31:13;;;;;;;14.05;10.15;;;;;;;22.53;75.95;98728.77;3986078;88;21050;-87
2021/08/15 19:37:21;;;;;;;14.30;12.15;;;;;;;22.45;76.59;98724.69;3869474;88;22270;-87
2021/08/15 19:43:22;;;;;;;16.75;12.15;;;;;;;22.32;76.43;98735.78;3894901;89;21507;-87
2021/08/15 19:49:26;;;;;;;16.93;11.83;;;;;;;22.14;76.65;98735.11;3860328;89;21087;-86
2021/08/15 19:55:28;;;;;;;15.80;11.50;;;;;;;22.10;77.51;98734.46;3876073;89;21207;-86
2021/08/15 20:01:34;;;;;;;20.52;12.23;;;;;;;21.95;77.30;98725.72;3860520;89;21189;-86
2021/08/15 20:07:35;;;;;;;14.53;10.30;;;;;;;21.76;77.98;98724.85;3877232;89;21112;-87
2021/08/15 20:13:36;;;;;;;15.55;10.43;;;;;;;21.73;78.49;98723.73;3862236;89;21118;-86
2021/08/15 20:19:38;;;;;;;18.60;11.63;;;;;;;21.58;79.12;98731.05;3832100;89;22119;-86
2021/08/15 20:25:40;;;;;;;16.75;11.97;;;;;;;21.52;79.26;98726.52;3927387;87;21066;-86
2021/08/15 20:31:41;;;;;;;14.35;11.03;;;;;;;21.31;79.53;98729.46;3940734;86;21056;-86
2021/08/15 20:37:44;;;;;;;19.85;12.53;;;;;;;21.05;80.11;98713.33;3964601;87;21053;-86
2021/08/15 20:43:48;;;;;;;15.40;11.25;;;;;;;20.96;80.88;98719.61;3986497;87;21619;-86
2021/08/15 20:49:49;;;;;;;16.12;12.75;;;;;;;21.06;81.44;98706.55;3986791;87;21077;-85
2021/08/15 20:55:50;;;;;;;14.47;10.95;;;;;;;20.86;81.16;98694.28;3955654;88;21371;-86
2021/08/15 21:01:57;;;;;;;17.23;13.30;;;;;;;20.80;82.09;98686.95;3962303;88;21768;-86
2021/08/15 21:07:58;;;;;;;;;;;;;;;20.72;82.03;98683.64;3970741;88;21059;-85
2021/08/15 21:13:59;;;;;;;16.73;11.15;;;;;;;20.48;82.72;98673.38;3893516;89;20168;-86
2021/08/15 21:20:02;;;;;;;16.95;11.50;;;;;;;20.33;82.63;98680.64;3938349;88;21332;-86
2021/08/15 21:26:04;;;;;;;16.48;11.68;;;;;;;20.22;82.78;98665.69;3811761;90;21042;-86
2021/08/15 21:32:06;;;;;;;15.05;11.33;;;;;;;20.05;82.97;98660.85;3943230;88;21033;-87
2021/08/15 21:38:08;;;;;;;18.32;12.65;;;;;;;19.91;82.99;98669.64;3889645;89;21124;-86
2021/08/15 21:44:10;;;;;;;14.90;10.85;;;;;;;19.78;84.14;98668.09;3879628;89;21118;-87
2021/08/15 21:50:12;;;;;;;15.58;11.10;;;;;;;19.78;83.88;98647.27;3899716;89;21077;-86
2021/08/15 21:56:13;;;;;;;12.82;10.28;;;;;;;19.56;83.77;98633.23;3884305;89;21039;-86
2021/08/15 22:02:15;;;;;;;19.30;10.63;;;;;;;19.48;84.31;98628.36;3979294;87;21075;-86
2021/08/15 22:08:16;;;;;;;15.20;11.18;;;;;;;19.37;85.11;98630.67;3967846;87;21577;-87
2021/08/15 22:14:18;;;;;;;19.42;10.88;;;;;;;19.40;85.11;98619.47;3952915;87;21538;-85
2021/08/15 22:20:19;;;;;;;14.45;11.48;;;;;;;19.32;85.22;98611.79;3993629;87;21114;-85
2021/08/15 22:26:23;;;;;;;21.42;11.33;;;;;;;19.16;85.28;98600.14;3939917;87;21082;-85
2021/08/15 22:32:25;;;;;;;14.13;11.60;;;;;;;19.06;85.65;98593.52;3940400;87;21058;-85
2021/08/15 22:38:26;;;;;;;16.00;11.22;;;;;;;19.03;85.90;98582.68;3961929;87;21166;-86
2021/08/15 22:44:27;;;;;;;16.25;11.93;;;;;;;19.07;86.52;98576.44;3875774;88;21131;-86
2021/08/15 22:50:29;;;;;;;14.50;10.35;;;;;;;19.01;86.44;98577.41;3967857;87;21073;-86
2021/08/15 22:56:30;;;;;;;15.58;11.03;;;;;;;18.99;87.34;98577.86;3981454;86;21551;-86
2021/08/15 23:02:31;;;;;;;14.18;10.45;;;;;;;19.10;87.07;98581.70;3954340;87;21044;-86
2021/08/15 23:08:32;;;;;;;16.70;10.82;;;;;;;19.23;87.92;98577.71;3911491;89;21498;-85
2021/08/15 23:14:34;;;;;;;14.47;10.35;;;;;;;19.12;86.95;98564.77;3922775;88;21209;-85
2021/08/15 23:20:35;;;;;;;14.50;11.00;;;;;;;18.94;87.30;98548.48;3947424;87;21027;-85
2021/08/15 23:26:37;;;;;;;18.42;11.88;;;;;;;18.84;87.51;98549.59;3934138;88;21731;-85
2021/08/15 23:32:38;;;;;;;16.42;10.35;;;;;;;18.75;87.84;98540.52;3880397;89;21554;-85
2021/08/15 23:38:41;;;;;;;13.58;10.30;;;;;;;18.69;88.38;98534.75;3881331;89;21052;-86
2021/08/15 23:44:43;;;;;;;14.65;11.10;;;;;;;18.96;88.91;98524.66;3879405;89;21160;-85
2021/08/15 23:50:44;;;;;;;16.73;10.55;;;;;;;18.79;89.01;98520.41;3884049;89;21114;-86
2021/08/15 23:56:46;;;;;;;12.68;9.85;;;;;;;18.76;89.19;98519.91;3910502;88;21071;-85
